Time;durP1;ratioP1;P1;durP2;ratioP2;P2;SDS_P1;SDS_P2;PMS_P1;PMS_P2;Temp;Humidity;BMP_temperature;BMP_pressure;BME280_temperature;BME280_humidity;BME280_pressure;Samples;Min_cycle;Max_cycle;Signal;HPM_P1;HPM_P2
2021/06/26 00:01:10;;;;;;;10.30;9.40;;;20.10;68.20;;;;;;5117311;28;20486;-71
2021/06/26 00:03:36;;;;;;;11.80;9.60;;;20.00;68.40;;;;;;5117228;28;20444;-71
2021/06/26 00:06:03;;;;;;;11.00;9.50;;;19.90;68.50;;;;;;5117106;28;20446;-70
2021/06/26 00:08:30;;;;;;;12.80;10.60;;;19.90;68.90;;;;;;5116911;28;20438;-70
2021/06/26 00:10:57;;;;;;;13.33;12.00;;;19.90;69.30;;;;;;5116832;28;20880;-70
2021/06/26 00:13:26;;;;;;;11.70;10.50;;;19.90;69.60;;;;;;5116893;28;20458;-70
2021/06/26 00:15:53;;;;;;;12.53;11.40;;;19.80;69.40;;;;;;5116679;28;20965;-70
2021/06/26 00:18:20;;;;;;;13.20;11.50;;;19.90;69.60;;;;;;5116790;28;20450;-70
2021/06/26 00:20:47;;;;;;;10.87;9.87;;;19.80;69.30;;;;;;5116434;28;20471;-70
2021/06/26 00:23:14;;;;;;;12.90;11.77;;;19.80;69.30;;;;;;5116803;28;20450;-70
2021/06/26 00:25:41;;;;;;;17.93;10.90;;;19.80;69.30;;;;;;5116723;28;20439;-70
2021/06/26 00:28:08;;;;;;;12.63;11.50;;;19.80;69.40;;;;;;5116912;28;20449;-70
2021/06/26 00:30:36;;;;;;;12.40;11.20;;;19.80;69.50;;;;;;5116487;28;20482;-71
2021/06/26 00:33:04;;;;;;;13.23;12.13;;;19.70;69.60;;;;;;5116603;28;20447;-71
2021/06/26 00:35:30;;;;;;;13.30;12.10;;;19.70;69.60;;;;;;5115159;28;20446;-71
2021/06/26 00:37:57;;;;;;;12.90;11.63;;;19.70;69.60;;;;;;5116495;28;20434;-70
2021/06/26 00:40:24;;;;;;;15.67;13.80;;;19.60;69.70;;;;;;5116422;28;20470;-71
2021/06/26 00:42:51;;;;;;;14.33;12.93;;;19.60;69.90;;;;;;5116364;28;20451;-70
2021/06/26 00:45:18;;;;;;;14.93;13.53;;;19.60;70.00;;;;;;5116352;28;20447;-70
2021/06/26 00:47:47;;;;;;;12.87;11.83;;;19.60;70.10;;;;;;5116298;28;20439;-70
2021/06/26 00:50:17;;;;;;;13.40;12.20;;;19.60;70.20;;;;;;5116103;28;20481;-71
2021/06/26 00:52:44;;;;;;;13.43;12.30;;;19.60;70.20;;;;;;5116752;28;20445;-70
2021/06/26 00:55:12;;;;;;;14.50;13.10;;;19.60;70.30;;;;;;5116182;28;20783;-70
2021/06/26 00:57:41;;;;;;;14.30;12.90;;;19.50;70.20;;;;;;5116065;28;20508;-70
2021/06/26 01:00:09;;;;;;;14.90;13.40;;;19.50;70.40;;;;;;5115650;28;20442;-71
2021/06/26 01:02:36;;;;;;;15.70;14.00;;;19.50;70.60;;;;;;5115924;28;20450;-71
2021/06/26 01:05:04;;;;;;;15.57;13.70;;;19.50;71.00;;;;;;5115701;28;20447;-70
2021/06/26 01:07:31;;;;;;;14.33;12.83;;;19.50;71.10;;;;;;5115618;27;20449;-70
2021/06/26 01:09:58;;;;;;;11.97;10.73;;;19.50;71.20;;;;;;5115704;28;20475;-72
2021/06/26 01:12:24;;;;;;;11.33;10.30;;;19.40;70.90;;;;;;5115775;28;20488;-70
2021/06/26 01:14:52;;;;;;;10.87;9.97;;;19.40;70.80;;;;;;5115718;28;20779;-70
2021/06/26 01:17:19;;;;;;;10.90;9.80;;;19.30;70.80;;;;;;5115405;28;20447;-70
2021/06/26 01:19:47;;;;;;;12.23;10.93;;;19.30;70.80;;;;;;5115224;28;20447;-70
2021/06/26 01:22:20;;;;;;;11.73;10.53;;;19.30;70.70;;;;;;5115552;28;20470;-71
2021/06/26 01:24:48;;;;;;;11.67;10.67;;;19.20;70.70;;;;;;5115934;28;20432;-71
2021/06/26 01:27:15;;;;;;;11.40;10.40;;;19.20;71.00;;;;;;5115437;28;20428;-71
2021/06/26 01:29:46;;;;;;;12.17;10.90;;;19.20;71.00;;;;;;5115412;28;20479;-70
2021/06/26 01:32:13;;;;;;;13.27;12.10;;;19.20;71.30;;;;;;5116097;28;20814;-70
2021/06/26 01:34:40;;;;;;;17.97;12.23;;;19.10;71.40;;;;;;5115337;28;20443;-70
2021/06/26 01:37:06;;;;;;;14.77;11.53;;;19.10;71.50;;;;;;5116097;28;20454;-70
2021/06/26 01:39:33;;;;;;;14.00;11.83;;;19.10;71.60;;;;;;5115230;28;20442;-70
2021/06/26 01:42:01;;;;;;;11.80;10.70;;;19.10;71.70;;;;;;5115134;28;20463;-70
2021/06/26 01:44:28;;;;;;;13.80;12.40;;;19.10;71.70;;;;;;5115156;28;20439;-70
2021/06/26 01:46:55;;;;;;;13.70;12.10;;;19.10;71.90;;;;;;5114677;28;20454;-70
2021/06/26 01:49:21;;;;;;;16.17;13.33;;;19.00;71.70;;;;;;5114723;28;20932;-70
2021/06/26 01:51:48;;;;;;;13.60;12.37;;;19.00;71.80;;;;;;5114662;28;20470;-71
2021/06/26 01:54:15;;;;;;;13.17;11.87;;;19.00;71.90;;;;;;5115008;28;20516;-71
2021/06/26 01:56:42;;;;;;;15.53;13.33;;;19.00;71.90;;;;;;5114941;28;20445;-71
2021/06/26 01:59:10;;;;;;;13.63;12.37;;;19.00;72.00;;;;;;5114929;28;20485;-71
2021/06/26 02:01:37;;;;;;;13.80;12.40;;;18.90;72.10;;;;;;5114776;28;20462;-71
2021/06/26 02:04:04;;;;;;;13.47;12.17;;;18.90;72.30;;;;;;5114801;28;20449;-71
2021/06/26 02:06:31;;;;;;;12.20;11.00;;;18.90;72.30;;;;;;5114734;28;20445;-70
2021/06/26 02:08:58;;;;;;;11.20;10.10;;;18.80;72.30;;;;;;5114702;28;20443;-70
2021/06/26 02:11:25;;;;;;;12.63;11.43;;;18.80;72.80;;;;;;5114474;28;20482;-71
2021/06/26 02:13:52;;;;;;;11.57;10.50;;;18.80;72.80;;;;;;5114536;28;20443;-70
2021/06/26 02:16:20;;;;;;;11.47;10.37;;;18.80;73.00;;;;;;5114575;28;20446;-70
2021/06/26 02:18:46;;;;;;;10.90;10.00;;;18.80;72.90;;;;;;5114501;28;20438;-70
2021/06/26 02:21:13;;;;;;;10.53;9.37;;;18.70;72.70;;;;;;5114051;28;20987;-71
2021/06/26 02:23:40;;;;;;;13.10;11.10;;;18.70;72.60;;;;;;5114418;28;20442;-71
2021/06/26 02:26:07;;;;;;;15.43;11.50;;;18.70;72.90;;;;;;5114388;28;20443;-70
2021/06/26 02:28:34;;;;;;;12.70;11.57;;;18.70;72.90;;;;;;5114362;28;20443;-70
2021/06/26 02:31:01;;;;;;;12.30;11.00;;;18.70;73.10;;;;;;5113844;28;20489;-71
2021/06/26 02:33:29;;;;;;;13.70;12.40;;;18.70;73.10;;;;;;5114536;28;20442;-71
2021/06/26 02:35:56;;;;;;;13.40;12.10;;;18.60;72.90;;;;;;5114196;28;20453;-71
2021/06/26 02:38:23;;;;;;;14.17;12.83;;;18.60;72.90;;;;;;5114468;28;20513;-71
2021/06/26 02:40:49;;;;;;;13.20;11.97;;;18.60;73.10;;;;;;5114131;28;20463;-70
2021/06/26 02:43:18;;;;;;;14.13;12.70;;;18.60;73.30;;;;;;5114205;28;20442;-70
2021/06/26 02:45:45;;;;;;;13.77;12.37;;;18.60;73.40;;;;;;5114096;28;20443;-70
2021/06/26 02:48:12;;;;;;;15.30;13.70;;;18.60;73.50;;;;;;5114120;28;20854;-70
2021/06/26 02:50:40;;;;;;;15.37;13.97;;;18.60;73.70;;;;;;5113921;28;20486;-71
2021/06/26 02:53:07;;;;;;;15.80;14.20;;;18.60;73.80;;;;;;5114017;28;20439;-70
2021/06/26 02:55:34;;;;;;;17.67;14.87;;;18.60;73.90;;;;;;5113994;28;20445;-70
2021/06/26 02:58:00;;;;;;;16.20;14.50;;;18.60;73.70;;;;;;5112844;28;20818;-70
2021/06/26 03:00:27;;;;;;;15.73;14.23;;;18.60;73.60;;;;;;5113580;28;20983;-71
2021/06/26 03:02:54;;;;;;;17.70;16.00;;;18.50;73.60;;;;;;5113895;28;20443;-71
2021/06/26 03:05:21;;;;;;;16.37;14.80;;;18.50;74.00;;;;;;5113586;28;20943;-70
2021/06/26 03:07:53;;;;;;;17.30;13.00;;;18.50;74.20;;;;;;5113955;28;20442;-70
2021/06/26 03:10:21;;;;;;;18.97;15.53;;;18.40;73.70;;;;;;5113734;28;20486;-71
2021/06/26 03:12:48;;;;;;;23.27;16.07;;;18.30;73.50;;;;;;5113831;28;20443;-70
2021/06/26 03:15:15;;;;;;;22.23;15.40;;;18.30;73.90;;;;;;5113487;28;20928;-70
2021/06/26 03:17:42;;;;;;;18.17;14.60;;;18.20;73.90;;;;;;5113744;28;20465;-70
2021/06/26 03:20:10;;;;;;;19.13;15.83;;;18.20;74.00;;;;;;5113396;28;20458;-71
2021/06/26 03:22:37;;;;;;;18.33;13.80;;;18.20;73.90;;;;;;5113799;28;20442;-70
2021/06/26 03:25:06;;;;;;;18.60;15.00;;;18.20;73.70;;;;;;5113416;28;21035;-70
2021/06/26 03:27:33;;;;;;;23.53;16.00;;;18.20;73.60;;;;;;5113706;28;20446;-70
2021/06/26 03:30:00;;;;;;;22.57;16.30;;;18.20;73.40;;;;;;5113553;28;20498;-72
2021/06/26 03:32:26;;;;;;;18.83;14.87;;;18.20;73.40;;;;;;5113644;28;20447;-70
2021/06/26 03:34:53;;;;;;;19.50;16.13;;;18.20;73.50;;;;;;5113689;28;20447;-70
2021/06/26 03:37:20;;;;;;;22.10;15.33;;;18.20;73.80;;;;;;5113636;28;20438;-70
2021/06/26 03:39:46;;;;;;;17.97;15.17;;;18.10;73.80;;;;;;5113604;28;20443;-70
2021/06/26 03:42:14;;;;;;;20.20;15.97;;;18.10;73.90;;;;;;5113237;28;20998;-71
2021/06/26 03:44:41;;;;;;;22.27;15.30;;;18.10;74.00;;;;;;5113590;28;20442;-70
2021/06/26 03:47:08;;;;;;;17.73;15.53;;;18.10;74.10;;;;;;5113584;28;20443;-70
2021/06/26 03:49:37;;;;;;;17.90;13.43;;;18.10;74.20;;;;;;5113527;28;20449;-70
2021/06/26 03:52:05;;;;;;;20.50;14.77;;;18.10;74.20;;;;;;5113403;28;20532;-70
2021/06/26 03:54:32;;;;;;;19.13;15.70;;;18.10;74.20;;;;;;5113151;28;20932;-70
2021/06/26 03:56:59;;;;;;;19.07;16.77;;;18.10;74.40;;;;;;5113508;28;20478;-70
2021/06/26 03:59:27;;;;;;;17.20;14.90;;;18.10;74.30;;;;;;5113409;28;20450;-70
2021/06/26 04:01:54;;;;;;;15.73;13.50;;;18.10;74.40;;;;;;5113033;28;20824;-71
2021/06/26 04:04:20;;;;;;;19.90;13.90;;;18.10;74.30;;;;;;5113415;28;20447;-70
2021/06/26 04:06:47;;;;;;;16.70;13.10;;;18.00;74.30;;;;;;5113404;28;20443;-70
2021/06/26 04:09:15;;;;;;;17.20;14.00;;;18.10;74.40;;;;;;5113781;28;20446;-70
2021/06/26 04:11:42;;;;;;;14.83;13.33;;;18.10;74.20;;;;;;5116888;28;20482;-71
2021/06/26 04:14:08;;;;;;;16.37;14.47;;;18.10;74.20;;;;;;5116975;28;20439;-70
2021/06/26 04:16:36;;;;;;;17.07;14.40;;;18.10;74.30;;;;;;5116642;28;20921;-70
2021/06/26 04:19:03;;;;;;;21.07;14.50;;;18.10;74.40;;;;;;5116753;28;20446;-70
2021/06/26 04:21:30;;;;;;;23.13;14.40;;;18.10;74.60;;;;;;5116738;28;20455;-71
2021/06/26 04:23:57;;;;;;;18.30;14.43;;;18.10;74.90;;;;;;5116789;28;20454;-70
2021/06/26 04:26:24;;;;;;;16.63;13.87;;;18.10;75.00;;;;;;5117003;28;20443;-70
2021/06/26 04:28:51;;;;;;;17.50;14.60;;;18.10;75.30;;;;;;5116664;28;20439;-70
2021/06/26 04:31:18;;;;;;;16.93;13.80;;;18.10;75.50;;;;;;5116471;28;20585;-71
2021/06/26 04:33:46;;;;;;;16.17;14.60;;;18.20;75.90;;;;;;5116553;28;20446;-70
2021/06/26 04:36:14;;;;;;;22.37;14.90;;;18.20;75.90;;;;;;5116566;28;20451;-70
2021/06/26 04:38:41;;;;;;;19.17;15.93;;;18.20;76.10;;;;;;5116163;28;20955;-70
2021/06/26 04:41:08;;;;;;;17.13;15.30;;;18.20;76.20;;;;;;5116381;28;20455;-70
2021/06/26 04:43:35;;;;;;;17.50;14.80;;;18.20;77.20;;;;;;5116421;28;20447;-70
2021/06/26 04:46:02;;;;;;;21.47;18.50;;;18.20;76.60;;;;;;5116023;28;20446;-70
2021/06/26 04:48:29;;;;;;;19.23;17.20;;;18.20;77.10;;;;;;5116317;28;20446;-70
2021/06/26 04:50:57;;;;;;;20.23;18.13;;;18.20;77.40;;;;;;5116115;28;20540;-71
2021/06/26 04:53:24;;;;;;;21.77;18.53;;;18.30;77.70;;;;;;5116516;28;20441;-70
2021/06/26 04:55:54;;;;;;;19.73;17.80;;;18.30;77.70;;;;;;5115914;28;20900;-70
2021/06/26 04:58:21;;;;;;;23.43;18.90;;;18.30;77.60;;;;;;5116434;28;20438;-70
2021/06/26 05:00:50;;;;;;;20.00;18.00;;;18.30;77.80;;;;;;5116254;28;20463;-71
2021/06/26 05:03:18;;;;;;;18.90;17.00;;;18.30;77.90;;;;;;5116014;28;20538;-70
2021/06/26 05:05:45;;;;;;;18.13;16.23;;;18.30;78.10;;;;;;5115669;28;20937;-70
2021/06/26 05:08:13;;;;;;;17.57;15.67;;;18.30;78.40;;;;;;5115901;28;20449;-70
2021/06/26 05:10:40;;;;;;;17.17;15.37;;;18.30;78.60;;;;;;5115725;28;20475;-71
2021/06/26 05:13:08;;;;;;;17.43;15.43;;;18.40;78.80;;;;;;5115837;28;20517;-70
2021/06/26 05:15:35;;;;;;;17.97;16.10;;;18.40;78.90;;;;;;5115754;28;20454;-70
2021/06/26 05:18:02;;;;;;;16.57;15.00;;;18.40;79.00;;;;;;5115356;28;20928;-70
2021/06/26 05:20:28;;;;;;;17.63;15.83;;;18.40;79.00;;;;;;5114978;28;20482;-71
2021/06/26 05:22:55;;;;;;;18.40;16.60;;;18.40;79.10;;;;;;5115069;28;20442;-70
2021/06/26 05:25:23;;;;;;;19.80;17.87;;;18.40;78.90;;;;;;5115242;28;20445;-70
2021/06/26 05:27:50;;;;;;;17.37;15.57;;;18.40;79.00;;;;;;5115806;28;20445;-70
2021/06/26 05:30:17;;;;;;;17.97;16.07;;;18.50;79.10;;;;;;5115306;28;20469;-71
2021/06/26 05:32:43;;;;;;;20.10;17.87;;;18.50;79.30;;;;;;5115471;28;20443;-71
2021/06/26 05:35:10;;;;;;;21.60;19.37;;;18.50;79.60;;;;;;5115127;28;20434;-71
2021/06/26 05:37:37;;;;;;;22.40;20.20;;;18.50;79.90;;;;;;5114997;28;20928;-71
2021/06/26 05:40:05;;;;;;;24.07;20.87;;;18.60;80.30;;;;;;5115160;28;20811;-71
2021/06/26 05:42:33;;;;;;;20.23;17.77;;;18.60;80.50;;;;;;5115279;28;20804;-70
2021/06/26 05:45:00;;;;;;;21.60;19.30;;;18.70;80.70;;;;;;5115190;28;20446;-70
2021/06/26 05:47:26;;;;;;;22.53;20.23;;;18.70;80.40;;;;;;5115142;28;20439;-70
2021/06/26 05:49:53;;;;;;;21.73;19.67;;;18.80;81.00;;;;;;5115382;28;20455;-70
2021/06/26 05:52:20;;;;;;;23.23;20.93;;;18.90;81.40;;;;;;5114937;28;20573;-70
2021/06/26 05:54:47;;;;;;;30.33;23.57;;;19.00;81.40;;;;;;5115067;28;20442;-70
2021/06/26 05:57:14;;;;;;;22.00;19.90;;;19.10;82.10;;;;;;5115769;28;20450;-70
2021/06/26 05:59:42;;;;;;;21.67;19.60;;;19.20;80.90;;;;;;5114954;28;20427;-71
2021/06/26 06:02:12;;;;;;;24.50;21.97;;;19.40;80.60;;;;;;5114839;28;20458;-71
2021/06/26 06:04:39;;;;;;;23.47;21.17;;;19.40;79.90;;;;;;5114811;28;20431;-71
2021/06/26 06:07:06;;;;;;;22.30;20.03;;;19.50;78.90;;;;;;5114410;28;20896;-71
2021/06/26 06:09:33;;;;;;;20.00;18.10;;;19.60;76.00;;;;;;5114702;28;20814;-71
2021/06/26 06:12:00;;;;;;;20.30;18.40;;;19.60;75.30;;;;;;5114270;28;20983;-71
2021/06/26 06:14:26;;;;;;;18.77;16.90;;;19.70;75.10;;;;;;5114905;28;20443;-71
2021/06/26 06:16:54;;;;;;;17.80;16.10;;;19.70;75.20;;;;;;5114575;28;20446;-71
2021/06/26 06:19:21;;;;;;;19.70;17.30;;;19.80;75.80;;;;;;5114410;28;20459;-70
2021/06/26 06:21:48;;;;;;;18.40;16.63;;;20.00;76.00;;;;;;5114483;28;20451;-71
2021/06/26 06:24:17;;;;;;;19.63;16.47;;;20.10;75.10;;;;;;5114482;28;20447;-71
2021/06/26 06:26:44;;;;;;;18.83;17.00;;;20.20;74.00;;;;;;5114126;28;20854;-71
2021/06/26 06:29:11;;;;;;;18.73;16.90;;;20.20;72.20;;;;;;5114441;28;20437;-71
2021/06/26 06:31:37;;;;;;;18.03;16.27;;;20.10;72.00;;;;;;5114210;28;20483;-71
2021/06/26 06:34:05;;;;;;;20.83;16.67;;;20.20;73.20;;;;;;5114191;28;20955;-71
2021/06/26 06:36:32;;;;;;;17.77;15.80;;;20.40;74.10;;;;;;5114241;28;20454;-71
2021/06/26 06:38:59;;;;;;;14.67;13.17;;;20.50;72.70;;;;;;5114268;28;20442;-70
2021/06/26 06:41:26;;;;;;;14.90;13.50;;;20.70;72.30;;;;;;5114137;28;20465;-71
2021/06/26 06:43:53;;;;;;;19.37;17.47;;;20.90;71.40;;;;;;5114158;28;20811;-70
2021/06/26 06:46:20;;;;;;;20.10;18.20;;;21.10;70.10;;;;;;5114156;28;20450;-70
2021/06/26 06:48:46;;;;;;;16.50;14.80;;;21.20;68.70;;;;;;5114361;28;20446;-70
2021/06/26 06:51:15;;;;;;;15.73;13.50;;;21.40;67.60;;;;;;5113912;28;20474;-71
2021/06/26 06:53:42;;;;;;;18.73;16.50;;;21.50;68.40;;;;;;5114046;28;20443;-71
2021/06/26 06:56:08;;;;;;;17.83;16.03;;;21.70;67.40;;;;;;5114082;28;20431;-70
2021/06/26 06:58:35;;;;;;;16.33;14.93;;;21.90;66.00;;;;;;5113960;28;20447;-70
2021/06/26 07:01:02;;;;;;;15.57;14.07;;;22.00;64.70;;;;;;5113861;28;20458;-71
2021/06/26 07:03:28;;;;;;;19.03;17.13;;;22.00;63.80;;;;;;5113575;28;20928;-71
2021/06/26 07:05:55;;;;;;;17.60;15.97;;;22.20;64.30;;;;;;5114013;28;20430;-71
2021/06/26 07:08:23;;;;;;;20.17;17.37;;;22.30;64.30;;;;;;5113603;28;20936;-70
2021/06/26 07:10:50;;;;;;;19.27;17.37;;;22.50;66.50;;;;;;5113772;28;20469;-71
2021/06/26 07:13:16;;;;;;;17.40;15.70;;;22.60;65.30;;;;;;5113592;28;20945;-70
2021/06/26 07:15:44;;;;;;;19.70;17.53;;;22.70;63.40;;;;;;5113837;28;20446;-70
2021/06/26 07:18:11;;;;;;;18.10;16.30;;;22.80;62.90;;;;;;5113528;28;20442;-70
2021/06/26 07:20:38;;;;;;;18.13;16.30;;;22.70;62.40;;;;;;5113725;28;20523;-69
2021/06/26 07:23:05;;;;;;;17.43;15.87;;;22.70;63.10;;;;;;5114099;28;20442;-69
2021/06/26 07:25:33;;;;;;;17.20;15.60;;;22.80;63.60;;;;;;5113710;28;20443;-70
2021/06/26 07:28:00;;;;;;;18.00;16.27;;;22.90;62.40;;;;;;5113718;28;20435;-70
2021/06/26 07:30:27;;;;;;;14.20;12.83;;;23.10;60.50;;;;;;5113279;28;21006;-70
2021/06/26 07:32:54;;;;;;;12.20;11.00;;;23.30;61.20;;;;;;5113648;28;20485;-69
2021/06/26 07:35:21;;;;;;;15.10;12.70;;;23.50;60.50;;;;;;5113694;28;20423;-69
2021/06/26 07:37:47;;;;;;;17.40;15.90;;;23.80;59.90;;;;;;5113601;28;20445;-69
2021/06/26 07:40:15;;;;;;;13.70;12.50;;;24.10;58.80;;;;;;5114393;28;20446;-70
2021/06/26 07:42:43;;;;;;;12.47;11.37;;;24.30;56.70;;;;;;5113573;28;20510;-70
2021/06/26 07:45:11;;;;;;;16.53;15.03;;;24.50;56.90;;;;;;5115542;28;20940;-71
2021/06/26 07:47:38;;;;;;;17.67;15.63;;;24.70;55.40;;;;;;5117494;28;20439;-70
2021/06/26 07:50:07;;;;;;;14.40;13.00;;;24.90;54.70;;;;;;5117457;28;20423;-71
2021/06/26 07:52:33;;;;;;;12.83;11.73;;;25.00;54.20;;;;;;5117225;28;20474;-71
2021/06/26 07:55:01;;;;;;;12.57;11.53;;;25.20;54.20;;;;;;5117252;28;20454;-71
2021/06/26 07:57:27;;;;;;;15.00;13.50;;;25.40;54.50;;;;;;5117301;28;20488;-70
2021/06/26 07:59:55;;;;;;;16.87;15.30;;;25.70;54.30;;;;;;5117298;28;20806;-71
2021/06/26 08:02:22;;;;;;;14.60;13.20;;;25.90;53.70;;;;;;5117162;28;20458;-71
2021/06/26 08:04:49;;;;;;;17.90;16.30;;;26.00;53.70;;;;;;5117250;28;20437;-71
2021/06/26 08:07:16;;;;;;;17.77;15.97;;;26.20;52.50;;;;;;5117484;28;20790;-71
2021/06/26 08:09:42;;;;;;;16.67;15.27;;;26.30;51.30;;;;;;5117250;28;20892;-71
2021/06/26 08:12:14;;;;;;;13.37;12.17;;;26.50;50.70;;;;;;5116878;28;20505;-70
2021/06/26 08:14:41;;;;;;;13.20;12.00;;;26.70;50.50;;;;;;5116742;28;21002;-70
2021/06/26 08:17:10;;;;;;;14.03;12.93;;;26.90;49.40;;;;;;5116983;28;20430;-71
2021/06/26 08:19:37;;;;;;;17.13;15.37;;;27.10;49.50;;;;;;5116734;28;20466;-69
2021/06/26 08:22:04;;;;;;;20.83;18.70;;;27.30;48.20;;;;;;5116782;28;20459;-70
2021/06/26 08:24:32;;;;;;;19.47;17.47;;;27.40;48.00;;;;;;5116538;28;20446;-71
2021/06/26 08:26:59;;;;;;;14.57;12.70;;;27.50;47.80;;;;;;5117516;28;20428;-70
2021/06/26 08:29:25;;;;;;;14.07;12.73;;;27.80;47.50;;;;;;5116478;28;20787;-70
2021/06/26 08:31:52;;;;;;;12.33;11.30;;;28.00;48.30;;;;;;5116876;28;20471;-70
2021/06/26 08:34:20;;;;;;;16.47;13.10;;;28.30;47.80;;;;;;5116712;28;20450;-70
2021/06/26 08:36:47;;;;;;;14.63;13.23;;;28.50;47.00;;;;;;5116289;28;20894;-70
2021/06/26 08:39:15;;;;;;;13.50;12.20;;;28.80;47.00;;;;;;5116518;28;20427;-70
2021/06/26 08:41:45;;;;;;;12.00;10.67;;;29.00;47.90;;;;;;5116061;28;20875;-69
2021/06/26 08:44:13;;;;;;;16.00;13.87;;;29.30;47.90;;;;;;5116133;28;20811;-73
2021/06/26 08:46:43;;;;;;;16.93;15.27;;;29.50;47.00;;;;;;5116455;28;20439;-70
2021/06/26 08:49:10;;;;;;;13.47;12.30;;;29.80;45.60;;;;;;5116397;28;20431;-70
2021/06/26 08:51:39;;;;;;;16.20;14.60;;;30.00;45.40;;;;;;5116160;28;20490;-70
2021/06/26 08:54:11;;;;;;;19.47;17.70;;;30.20;45.70;;;;;;5116301;28;20829;-70
2021/06/26 08:56:38;;;;;;;16.23;14.03;;;30.20;43.50;;;;;;5115104;28;20423;-69
2021/06/26 08:59:05;;;;;;;16.27;13.57;;;29.90;43.10;;;;;;5115830;28;20959;-70
2021/06/26 09:01:33;;;;;;;17.27;15.50;;;29.80;44.50;;;;;;5116185;28;20470;-69
2021/06/26 09:04:05;;;;;;;16.20;14.80;;;29.90;44.30;;;;;;5116400;28;20430;-69
2021/06/26 09:06:34;;;;;;;17.17;15.67;;;29.90;44.20;;;;;;5115998;28;20431;-68
2021/06/26 09:09:02;;;;;;;17.30;15.80;;;30.10;43.80;;;;;;5115971;28;20443;-69
2021/06/26 09:11:29;;;;;;;20.07;13.43;;;30.10;43.00;;;;;;5116031;28;20462;-68
2021/06/26 09:13:56;;;;;;;15.53;14.13;;;30.20;43.50;;;;;;5115969;28;20419;-70
2021/06/26 09:16:22;;;;;;;14.90;13.50;;;30.20;40.50;;;;;;5115858;28;20454;-71
2021/06/26 09:18:51;;;;;;;15.63;13.10;;;30.20;40.40;;;;;;5115463;28;20446;-70
2021/06/26 09:21:23;;;;;;;17.17;13.27;;;30.30;42.00;;;;;;5115359;28;20477;-70
2021/06/26 09:24:04;;;;;;;15.87;14.10;;;30.50;41.50;;;;;;5115774;28;20427;-68
2021/06/26 09:26:32;;;;;;;17.30;15.53;;;30.60;42.60;;;;;;5115737;28;20465;-68
2021/06/26 09:29:08;;;;;;;16.17;14.77;;;30.60;41.50;;;;;;5115641;28;20423;-68
2021/06/26 09:31:35;;;;;;;15.00;12.10;;;30.40;37.80;;;;;;5115048;28;20967;-68
2021/06/26 09:34:04;;;;;;;13.40;12.20;;;30.10;40.00;;;;;;5115740;28;20423;-68
2021/06/26 09:36:32;;;;;;;11.30;10.20;;;30.10;39.60;;;;;;5115147;28;20897;-68
2021/06/26 09:39:06;;;;;;;11.50;9.30;;;30.00;38.20;;;;;;5115338;28;20434;-68
2021/06/26 09:41:33;;;;;;;10.73;9.73;;;30.00;40.00;;;;;;5115275;28;20465;-68
2021/06/26 09:44:09;;;;;;;10.83;9.83;;;30.00;40.10;;;;;;5115288;28;20426;-68
2021/06/26 09:46:45;;;;;;;17.63;13.57;;;30.20;39.30;;;;;;5115230;28;20481;-68
2021/06/26 09:49:12;;;;;;;13.27;12.00;;;30.30;40.00;;;;;;5115251;28;20451;-68
2021/06/26 09:51:39;;;;;;;14.97;13.33;;;30.40;40.30;;;;;;5115072;28;20466;-68
2021/06/26 09:54:08;;;;;;;14.43;13.23;;;30.50;39.00;;;;;;5115205;28;20430;-68
2021/06/26 09:56:40;;;;;;;13.67;12.30;;;30.50;35.80;;;;;;5115076;28;20447;-68
2021/06/26 09:59:08;;;;;;;12.90;11.80;;;30.50;36.70;;;;;;5114946;28;20442;-68
2021/06/26 10:01:36;;;;;;;13.33;10.67;;;30.70;37.50;;;;;;5114888;28;20467;-69
2021/06/26 10:04:05;;;;;;;14.97;13.67;;;31.00;37.40;;;;;;5114952;28;20461;-68
2021/06/26 10:06:33;;;;;;;13.30;11.67;;;31.40;36.40;;;;;;5114477;28;20936;-68
2021/06/26 10:09:01;;;;;;;11.43;10.53;;;31.50;35.50;;;;;;5114415;28;20443;-68
2021/06/26 10:11:31;;;;;;;11.37;10.27;;;31.80;35.20;;;;;;5114648;28;20462;-69
2021/06/26 10:14:01;;;;;;;9.80;9.00;;;32.10;34.80;;;;;;5114630;28;20458;-69
2021/06/26 10:16:29;;;;;;;12.87;11.57;;;32.40;33.60;;;;;;5114597;28;20439;-69
2021/06/26 10:18:58;;;;;;;11.70;10.80;;;32.60;32.60;;;;;;5114515;28;20449;-69
2021/06/26 10:21:26;;;;;;;11.07;10.07;;;32.80;33.10;;;;;;5114414;28;20686;-69
2021/06/26 10:23:54;;;;;;;12.07;10.97;;;32.80;32.70;;;;;;5114445;28;20438;-69
2021/06/26 10:26:21;;;;;;;11.67;10.77;;;33.10;34.10;;;;;;5114425;28;20446;-68
2021/06/26 10:28:50;;;;;;;10.50;9.70;;;33.50;32.80;;;;;;5114640;28;20425;-68
2021/06/26 10:31:29;;;;;;;10.67;9.67;;;34.10;32.80;;;;;;5114094;28;21112;-68
2021/06/26 10:34:11;;;;;;;13.40;12.10;;;34.80;31.40;;;;;;5114298;28;20499;-69
2021/06/26 10:36:38;;;;;;;9.60;8.70;;;35.50;30.00;;;;;;5114287;28;20441;-69
2021/06/26 10:39:17;;;;;;;10.93;10.07;;;36.10;28.90;;;;;;5113866;28;20798;-68
2021/06/26 10:41:44;;;;;;;11.33;10.40;;;36.80;29.50;;;;;;5114082;28;20469;-68
2021/06/26 10:44:12;;;;;;;11.47;10.37;;;37.50;27.70;;;;;;5114387;28;20422;-68
2021/06/26 10:46:47;;;;;;;10.00;9.17;;;38.10;26.10;;;;;;5113703;28;20446;-68
2021/06/26 10:49:14;;;;;;;9.53;8.73;;;38.70;26.00;;;;;;5114124;28;20216;-69
2021/06/26 10:51:43;;;;;;;9.10;8.43;;;39.10;24.10;;;;;;5113806;28;20220;-70
2021/06/26 10:54:14;;;;;;;9.63;8.67;;;39.30;22.80;;;;;;5113962;27;20208;-69
2021/06/26 10:56:43;;;;;;;8.37;7.57;;;39.00;21.70;;;;;;5113943;28;20185;-69
2021/06/26 10:59:12;;;;;;;8.30;7.70;;;38.60;23.20;;;;;;5113604;28;20204;-69
2021/06/26 11:01:40;;;;;;;9.33;8.43;;;37.90;23.40;;;;;;5113802;28;20216;-69
2021/06/26 11:04:10;;;;;;;8.80;8.17;;;37.30;23.70;;;;;;5113603;28;20664;-68
2021/06/26 11:06:38;;;;;;;8.40;7.80;;;36.90;24.10;;;;;;5113926;28;20430;-68
2021/06/26 11:09:07;;;;;;;8.67;7.97;;;36.70;25.30;;;;;;5113492;28;20882;-69
2021/06/26 11:11:35;;;;;;;9.47;8.47;;;37.00;24.70;;;;;;5113710;28;20462;-69
2021/06/26 11:14:10;;;;;;;11.57;10.50;;;37.40;23.60;;;;;;5113640;28;20476;-69
2021/06/26 11:16:41;;;;;;;10.83;9.93;;;37.90;23.00;;;;;;5113684;28;20515;-68
2021/06/26 11:19:08;;;;;;;10.80;9.90;;;38.20;22.90;;;;;;5113806;28;20201;-68
2021/06/26 11:21:40;;;;;;;10.60;9.53;;;38.60;23.10;;;;;;5117894;28;20216;-69
2021/06/26 11:24:07;;;;;;;9.65;8.85;;;39.10;22.30;;;;;;5117807;28;20188;-68
2021/06/26 11:26:52;;;;;;;11.32;8.70;;;39.60;22.00;;;;;;5117469;28;20185;-69
2021/06/26 11:29:27;;;;;;;10.20;9.40;;;40.30;22.40;;;;;;5117810;28;20188;-70
2021/06/26 11:31:56;;;;;;;8.98;8.20;;;40.90;21.00;;;;;;5117761;28;20220;-70
2021/06/26 11:34:23;;;;;;;10.05;9.10;;;41.10;20.90;;;;;;5117930;28;20217;-70
2021/06/26 11:37:01;;;;;;;10.88;9.77;;;40.70;21.10;;;;;;5117735;28;20200;-70
2021/06/26 11:39:29;;;;;;;11.15;10.38;;;40.00;22.50;;;;;;5117690;28;20218;-70
2021/06/26 11:41:56;;;;;;;9.88;9.07;;;39.30;22.80;;;;;;5117646;28;20589;-70
2021/06/26 11:44:33;;;;;;;10.38;9.35;;;39.30;24.20;;;;;;5117621;28;20196;-69
2021/06/26 11:47:02;;;;;;;10.70;9.63;;;39.50;23.90;;;;;;5117492;28;20237;-72
2021/06/26 11:49:37;;;;;;;10.32;9.32;;;39.40;22.90;;;;;;5117461;28;20207;-71
2021/06/26 11:52:05;;;;;;;10.73;9.60;;;38.80;23.60;;;;;;5117372;28;20219;-70
2021/06/26 11:54:32;;;;;;;11.23;10.17;;;38.10;24.40;;;;;;5117534;28;20208;-69
2021/06/26 11:56:58;;;;;;;11.63;10.73;;;37.30;25.50;;;;;;5118706;28;20283;-69
2021/06/26 11:59:30;;;;;;;11.13;10.23;;;37.10;26.10;;;;;;5117339;28;20437;-70
2021/06/26 12:01:57;;;;;;;10.10;9.37;;;37.60;26.00;;;;;;5117136;28;20252;-71
2021/06/26 12:04:29;;;;;;;9.90;8.95;;;38.50;25.50;;;;;;5117235;28;20204;-69
2021/06/26 12:06:56;;;;;;;12.10;7.95;;;39.50;23.70;;;;;;5117118;28;20662;-69
2021/06/26 12:09:24;;;;;;;10.32;9.48;;;40.40;23.10;;;;;;5117189;28;20205;-70
2021/06/26 12:11:52;;;;;;;9.63;8.73;;;41.30;21.20;;;;;;5116804;28;20716;-70
2021/06/26 12:14:27;;;;;;;12.60;11.35;;;41.60;20.90;;;;;;5116973;28;20274;-70
2021/06/26 12:17:01;;;;;;;9.73;9.02;;;41.10;21.40;;;;;;5116683;28;20661;-70
2021/06/26 12:19:31;;;;;;;9.50;8.80;;;40.70;21.50;;;;;;5116778;28;20207;-71
2021/06/26 12:21:59;;;;;;;12.02;10.82;;;40.60;22.90;;;;;;5117116;28;20581;-70
2021/06/26 12:24:27;;;;;;;12.20;11.20;;;40.70;22.40;;;;;;5116775;28;20223;-70
2021/06/26 12:27:08;;;;;;;13.02;12.07;;;41.40;22.00;;;;;;5116758;28;20197;-70
2021/06/26 12:29:36;;;;;;;9.23;8.32;;;42.20;19.70;;;;;;5116765;28;20192;-70
2021/06/26 12:32:04;;;;;;;7.95;7.35;;;42.70;20.90;;;;;;5117347;28;20228;-71